Latest Coastal Weather Observations for Warrnambool

IDV60701

Issued at 1:12 am EST Thursday 3 September 2026 (issued every 10 minutes, with the page automatically refreshed every 10 minutes)

About coastal observations | Map of coastal stations | Coastal observations for VIC | Marine services | Other Formats
Station Details ID: 090186 Name: WARRNAMBOOL AIRPORT NDB Lat: -38.29 Lon: 142.45 Height: 70.8 m
Data from the previous 72 hours. | See also: Recent months at Warrnambool
Date/Time
EST
Wind Sea
Height
m
Swell Vis
km
Cloud Weather Temp
°C
Press
MSL
hPa
Rain since
9am
mm
Dir  Spd
kts
Gust
kts
Height
m
Period
s
Dir
03/01:00am NNW 14 21 - - - - 10 Mostly clear - 9.8 1009.2 0.0
03/12:30am NNW 14 19 - - - - 10 Partly cloudy - 10.1 1009.5 0.0
03/12:00am NW 15 19 - - - - 10 Cloudy - 10.0 1010.0 0.0
 
Date/Time
EST
Wind Sea
Height
m
Swell Vis
km
Cloud Weather Temp
°C
Press
MSL
hPa
Rain since
9am
mm
Dir  Spd
kts
Gust
kts
Height
m
Period
s
Dir
02/11:30pm NNW 14 19 - - - - 10 - - 9.7 1010.2 0.0
02/11:00pm NNW 15 19 - - - - 10 Partly cloudy - 10.1 1010.7 0.0
02/10:30pm NNW 15 19 - - - - 10 - - 9.8 1011.1 0.0
02/10:00pm NNW 13 18 - - - - 10 Partly cloudy - 10.2 1011.0 0.0
02/09:30pm NW 12 16 - - - - 10 Mostly clear - 10.5 1011.4 0.0
02/09:00pm NNW 11 15 - - - - 10 Cloudy - 10.4 1011.5 0.0
02/08:30pm NNW 12 16 - - - - 10 Mostly clear - 10.6 1011.5 0.0
02/08:00pm NNW 12 17 - - - - 10 Cloudy - 10.9 1011.3 0.0
02/07:30pm NNW 11 14 - - - - 10 Cloudy - 11.0 1011.3 0.0
02/07:00pm NNW 11 16 - - - - 10 Partly cloudy - 10.7 1011.3 0.0
02/06:30pm WNW 10 15 - - - - 10 Partly cloudy - 11.5 1011.6 0.0
02/06:00pm NW 10 13 - - - - 10 Mostly cloudy - 12.2 1011.2 0.0
02/05:30pm NW 13 18 - - - - 10 Mostly clear - 12.6 1011.0 0.0
02/05:00pm NNW 13 18 - - - - 10 Partly cloudy - 12.6 1010.9 0.0
02/04:30pm NNW 12 17 - - - - 10 Mostly clear - 13.3 1011.1 0.0
02/04:00pm NNW 13 19 - - - - 10 Partly cloudy - 12.7 1011.6 0.0
02/03:30pm NW 12 17 - - - - 10 Partly cloudy - 13.2 1011.7 0.0
02/03:00pm NW 13 17 - - - - 10 Cloudy - 13.9 1011.8 0.0
02/02:30pm NW 14 18 - - - - 10 Partly cloudy - 13.3 1012.3 0.0
02/02:00pm NW 13 17 - - - - 10 Partly cloudy - 13.2 1012.5 0.0
02/01:30pm NW 15 20 - - - - 10 Partly cloudy - 13.3 1013.0 0.0
02/01:00pm NW 12 18 - - - - 10 Partly cloudy - 13.5 1013.4 0.0
02/12:30pm WNW 13 19 - - - - 10 Partly cloudy - 13.4 1013.5 0.0
02/12:00pm NW 14 18 - - - - 10 Mostly cloudy - 13.6 1013.9 0.0
02/11:30am NW 13 19 - - - - 10 Cloudy - 12.7 1014.4 0.0
02/11:00am NW 13 16 - - - - 10 Cloudy - 12.8 1014.7 0.0
02/10:30am NW 13 17 - - - - 10 Cloudy - 12.4 1014.6 0.0
02/10:00am NW 10 14 - - - - 10 Cloudy - 11.8 1014.8 0.0
02/09:30am NW 9 11 - - - - 10 Cloudy - 11.4 1014.8 0.0
02/09:00am NW 10 13 - - - - 10 Cloudy - 10.9 1015.0 3.6
02/08:30am NW 7 9 - - - - 10 Cloudy - 10.4 1014.9 3.6
02/08:00am NW 7 10 - - - - 10 Cloudy - 9.9 1014.9 3.6
02/07:30am NW 7 8 - - - - 10 Cloudy - 9.4 1014.7 3.6
02/07:00am NW 6 9 - - - - 10 Cloudy - 9.2 1014.5 3.6
02/06:30am NW 8 11 - - - - 10 Cloudy - 9.0 1014.0 3.6
02/06:00am NW 9 11 - - - - 10 Mostly cloudy - 8.8 1014.0 3.6
02/05:30am NW 9 11 - - - - 10 Partly cloudy - 7.9 1014.0 3.6
02/05:00am NW 9 11 - - - - 10 - - 7.5 1013.9 3.6
02/04:30am NW 8 10 - - - - 10 Partly cloudy - 8.1 1013.8 3.6
02/04:00am NW 7 9 - - - - 10 Partly cloudy - 8.3 1013.7 3.6
02/03:30am NW 6 8 - - - - 10 Cloudy - 8.6 1013.8 3.6
02/03:00am NW 7 8 - - - - 10 Mostly cloudy - 7.7 1013.9 3.6
02/02:30am NW 6 8 - - - - 10 Partly cloudy - 7.6 1014.1 3.6
02/02:00am W 8 9 - - - - 10 Mostly clear - 8.7 1014.1 3.6
02/01:30am WNW 7 9 - - - - 10 Partly cloudy - 10.0 1014.1 3.6
02/01:00am W 7 8 - - - - 10 Partly cloudy - 10.3 1014.0 3.6
02/12:30am W 7 11 - - - - 10 Mostly clear - 10.1 1013.8 3.6
02/12:00am WSW 9 11 - - - - 10 Cloudy - 10.7 1013.7 3.6
 
Date/Time
EST
Wind Sea
Height
m
Swell Vis
km
Cloud Weather Temp
°C
Press
MSL
hPa
Rain since
9am
mm
Dir  Spd
kts
Gust
kts
Height
m
Period
s
Dir
01/11:30pm WSW 12 15 - - - - 10 Mostly clear - 11.1 1013.6 3.6
01/11:07pm WSW 9 11 - - - - 10 Mostly clear - 11.5 1013.5 3.6
01/11:01pm WSW 9 14 - - - - 10 Mostly clear - 11.6 1013.5 3.6
01/11:00pm WSW 9 14 - - - - 10 Partly cloudy - 11.6 1013.5 3.6
01/10:30pm W 9 11 - - - - 2 Partly cloudy - 12.0 1013.4 3.4
01/10:20pm W 9 11 - - - - 5 Partly cloudy - 12.0 1013.5 3.2
01/10:11pm W 9 12 - - - - 10 Partly cloudy - 12.0 1013.4 3.2
01/10:00pm W 9 13 - - - - 5 Partly cloudy - 12.1 1013.3 3.2
01/09:39pm WSW 13 17 - - - - 5 Partly cloudy - 12.4 1013.0 3.0
01/09:30pm WNW 15 23 - - - - 10 Partly cloudy - 12.9 1012.8 2.8
01/09:17pm NW 13 19 - - - - 7 Partly cloudy - 13.4 1012.4 2.8
01/09:01pm NW 12 16 - - - - 5 Partly cloudy - 13.5 1012.1 2.8
01/09:00pm NW 13 18 - - - - 6 Cloudy - 13.4 1012.1 2.8
01/08:54pm NW 13 18 - - - - 10 Partly cloudy - 13.5 1012.1 2.8
01/08:30pm NW 15 21 - - - - 10 Partly cloudy - 13.4 1011.9 2.8
01/08:01pm NW 17 23 - - - - 10 Partly cloudy - 13.5 1012.1 2.8
01/08:00pm NW 17 23 - - - - 10 Partly cloudy - 13.5 1012.0 2.8
01/07:45pm NW 16 20 - - - - 5 Mostly clear - 13.5 1011.9 2.8
01/07:33pm NW 16 22 - - - - 10 Partly cloudy - 13.4 1011.8 2.6
01/07:30pm NW 16 22 - - - - 9 Cloudy - 13.4 1011.7 2.6
01/07:00pm NW 12 17 - - - - 5 Mostly clear - 13.3 1011.7 2.2
01/06:53pm NW 14 18 - - - - 5 Partly cloudy - 13.3 1011.6 2.0
01/06:41pm NW 15 20 - - - - 10 Partly cloudy - 13.4 1011.5 2.0
01/06:34pm NNW 17 22 - - - - 8 Partly cloudy - 13.5 1011.4 2.0
01/06:30pm NNW 19 27 - - - - 4 Partly cloudy - 13.5 1011.2 2.0
01/06:21pm NNW 15 27 - - - - 5 Partly cloudy - 13.7 1011.0 1.8
01/06:20pm NNW 14 22 - - - - 5 Mostly clear - 13.6 1011.0 1.4
01/06:00pm N 13 17 - - - - 10 Mostly cloudy - 13.8 1010.6 1.0
01/05:30pm N 11 15 - - - - 10 Partly cloudy - 14.0 1010.9 1.0
01/05:00pm NNW 10 13 - - - - 10 Partly cloudy - 13.6 1011.6 1.0
01/04:50pm NNW 11 15 - - - - 10 Mostly clear - 13.7 1011.6 1.0
01/04:37pm NNW 13 20 - - - - 5 Cloudy - 13.8 1011.6 0.8
01/04:30pm NW 14 20 - - - - 10 Cloudy - 14.2 1011.9 0.6
01/04:17pm NW 12 16 - - - - 10 Mostly clear - 14.1 1012.2 0.4
01/04:07pm WNW 15 25 - - - - 8 Partly cloudy - 14.5 1012.5 0.2
01/04:01pm WNW 19 25 - - - - 8 Partly cloudy - 14.8 1012.7 0.2
01/04:00pm WNW 19 25 - - - - 9 Partly cloudy - 14.8 1012.7 0.2
01/03:41pm NW 15 25 - - - - 10 Partly cloudy - 17.1 1012.1 0.0
01/03:30pm NW 15 21 - - - - 10 Mostly clear - 17.3 1012.0 0.0
01/03:00pm NW 15 20 - - - - 10 Mostly cloudy - 17.2 1011.9 0.0
01/02:30pm NW 17 25 - - - - 10 Cloudy - 17.3 1011.9 0.0
01/02:00pm NNW 19 26 - - - - 10 Partly cloudy - 17.4 1011.8 0.0
01/01:53pm NNW 20 26 - - - - 10 Partly cloudy - 17.3 1011.8 0.0
01/01:33pm NNW 20 30 - - - - 10 Partly cloudy - 17.5 1011.9 0.0
01/01:30pm NNW 19 27 - - - - 10 Partly cloudy - 17.2 1012.0 0.0
01/01:00pm N 20 28 - - - - 10 - - 16.9 1012.1 0.0
01/12:30pm NNW 18 26 - - - - 10 - - 17.3 1013.0 0.0
01/12:24pm NNW 18 26 - - - - 10 - - 17.3 1013.3 0.0
01/12:09pm NNW 15 25 - - - - 10 - - 16.9 1013.7 0.0
01/12:00pm NNW 17 23 - - - - 10 Cloudy - 16.8 1014.0 0.0
01/11:30am NNW 18 24 - - - - 10 - - 16.5 1014.3 0.0
01/11:20am NNW 18 25 - - - - 10 - - 16.5 1014.4 0.0
01/11:08am NNW 21 31 - - - - 10 - - 16.4 1014.5 0.0
01/11:00am NNW 22 30 - - - - 10 - - 16.6 1014.4 0.0
01/10:37am NNW 23 30 - - - - 10 Cloudy - 16.8 1014.8 0.0
01/10:30am NNW 25 33 - - - - 10 Partly cloudy - 17.1 1014.8 0.0
01/10:23am NNW 22 33 - - - - 10 Partly cloudy - 17.5 1014.9 0.0
01/10:00am NNW 23 32 - - - - 10 - - 16.9 1015.3 0.0
01/09:32am NNW 21 29 - - - - 10 - - 15.9 1015.8 0.0
01/09:30am NNW 21 29 - - - - 10 - - 15.8 1015.9 0.0
01/09:13am NNW 19 30 - - - - 10 - - 15.3 1016.4 0.0
01/09:00am NNW 16 22 - - - - 10 - - 15.1 1016.7 0.0
01/08:30am N 9 14 - - - - 10 - - 13.1 1016.9 0.0
01/08:00am N 11 15 - - - - 10 - - 11.0 1017.1 0.0
01/07:30am N 12 15 - - - - 10 - - 9.5 1017.4 0.0
01/07:00am N 11 14 - - - - 10 - - 9.0 1017.4 0.0
01/06:30am N 11 14 - - - - 10 - - 8.7 1017.7 0.0
01/06:00am N 11 14 - - - - 10 - - 8.3 1018.2 0.0
01/05:30am N 10 13 - - - - 10 - - 7.9 1018.9 0.0
01/05:00am N 11 14 - - - - 10 - - 8.0 1019.0 0.0
01/04:30am N 9 11 - - - - 10 - - 5.7 1019.2 0.0
01/04:00am N 9 10 - - - - 10 - - 5.9 1019.5 0.0
01/03:30am N 9 10 - - - - 10 - - 6.0 1020.3 0.0
01/03:00am N 8 10 - - - - 10 - - 6.5 1020.9 0.0
01/02:30am N 8 9 - - - - 10 - - 5.9 1021.4 0.0
01/02:00am N 8 10 - - - - 10 - - 6.0 1021.8 0.0
01/01:30am N 9 10 - - - - 10 - - 6.1 1022.0 0.0
01/01:00am N 8 9 - - - - 10 - - 6.6 1022.6 0.0
01/12:30am N 9 10 - - - - 10 - - 7.5 1022.7 0.0
01/12:00am N 10 11 - - - - 10 - - 7.4 1023.0 0.0
 
Date/Time
EST
Wind Sea
Height
m
Swell Vis
km
Cloud Weather Temp
°C
Press
MSL
hPa
Rain since
9am
mm
Dir  Spd
kts
Gust
kts
Height
m
Period
s
Dir
31/11:30pm N 8 9 - - - - 10 - - 7.1 1023.9 0.0
31/11:00pm N 9 10 - - - - 10 - - 7.8 1024.3 0.0
31/10:30pm NNE 10 11 - - - - 10 - - 8.4 1024.7 0.0
31/10:00pm NNE 9 10 - - - - 10 - - 8.2 1025.2 0.0
31/09:30pm NNE 8 9 - - - - 10 - - 7.8 1025.5 0.0
31/09:00pm N 7 8 - - - - 10 - - 7.6 1025.7 0.0
31/08:30pm NNE 6 6 - - - - 10 - - 8.1 1025.6 0.0
31/08:00pm NNE 5 5 - - - - 10 - - 8.7 1025.9 0.0
31/07:30pm NE 5 6 - - - - 10 - - 11.4 1026.0 0.0
31/07:00pm NE 5 5 - - - - 10 - - 11.5 1026.2 0.0
31/06:30pm NE 4 4 - - - - 10 - - 12.5 1026.3 0.0
31/06:00pm NE 4 5 - - - - 10 - - 14.2 1026.4 0.0
31/05:30pm NE 6 7 - - - - 10 - - 15.7 1026.3 0.0
31/05:00pm NNE 6 8 - - - - 10 - - 16.9 1026.7 0.0
31/04:30pm NNE 5 7 - - - - 10 - - 17.8 1027.1 0.0
31/04:00pm N 4 7 - - - - 10 - - 18.3 1027.5 0.0
31/03:30pm NNW 5 7 - - - - 10 - - 18.3 1027.9 0.0
31/03:00pm N 5 8 - - - - 10 - - 18.0 1028.2 0.0
31/02:30pm N 5 8 - - - - 10 - - 17.6 1028.5 0.0
31/02:00pm N 6 10 - - - - 10 - - 17.1 1028.9 0.0
31/01:30pm NNE 6 9 - - - - 10 - - 16.3 1029.7 0.0
31/01:00pm NNE 7 9 - - - - 10 - - 15.4 1030.2 0.0
31/12:30pm NNE 7 10 - - - - 10 - - 14.6 1030.8 0.0
31/12:00pm NNE 8 10 - - - - 10 - - 13.3 1031.3 0.0
31/11:30am N 7 11 - - - - 10 - - 12.5 1031.8 0.0
31/11:00am NE 6 10 - - - - 10 Mostly clear - 11.4 1032.2 0.0
31/10:51am NNE 6 9 - - - - 10 Mostly clear - 11.1 1032.3 0.0
31/10:30am N 7 10 - - - - 10 Partly cloudy - 10.6 1032.5 0.0
31/10:00am NNE 6 8 - - - - 10 Cloudy - 10.2 1032.7 0.0
31/09:30am NNE 5 9 - - - - 10 Cloudy - 9.0 1032.7 0.0
31/09:00am NE 5 9 - - - - 10 Cloudy - 9.1 1032.7 0.0
31/08:30am N 5 7 - - - - 10 Cloudy - 8.7 1032.9 0.0
31/08:00am NW 5 6 - - - - 10 Cloudy - 8.8 1032.8 0.0
31/07:30am N 2 5 - - - - 10 Cloudy - 8.7 1032.7 0.0
31/07:00am NNW 4 5 - - - - 10 Cloudy - 8.8 1032.6 0.0
31/06:30am NW 2 5 - - - - 10 Cloudy - 9.0 1032.6 0.0
31/06:00am WNW 1 4 - - - - 10 Cloudy - 9.0 1032.7 0.0
31/05:30am WSW 3 6 - - - - 10 Cloudy - 9.1 1032.7 0.0
31/05:00am NW 1 5 - - - - 10 Cloudy - 9.3 1032.3 0.0
31/04:30am NW 3 6 - - - - 10 Cloudy - 9.4 1032.3 0.0
31/04:00am NW 3 5 - - - - 10 Cloudy - 9.5 1032.3 0.0
31/03:30am CALM 0 3 - - - - 10 Cloudy - 9.6 1032.7 0.0
31/03:00am CALM 0 0 - - - - 10 Cloudy - 9.7 1032.9 0.0
31/02:30am WNW 5 6 - - - - 10 Cloudy - 9.6 1033.1 0.0
31/02:00am WNW 5 8 - - - - 10 Cloudy - 9.8 1033.3 0.0
31/01:30am W 4 6 - - - - 10 Cloudy - 9.8 1033.3 0.0

Other formats

Comma delimited format used in spreadsheet applications
http://www.bom.gov.au/fwo/IDV60701/IDV60701.94837.axf

JavaScript Object Notation format (JSON) in row-major order
http://www.bom.gov.au/fwo/IDV60701/IDV60701.94837.json

Data quality

Most of these data are generated automatically and are frequently updated. Quality checks on data are not normally performed. It is possible for incorrect values to appear. Refer to information at About Latest Weather Observations and please check the disclaimer before using these data.